sensor_id;sensor_type;location;lat;lon;timestamp;temperature;humidity
12700;DHT22;6414;49.570;6.060;2023-02-13T00:02:38;3.40;99.90
12700;DHT22;6414;49.570;6.060;2023-02-13T00:05:24;3.40;99.90
12700;DHT22;6414;49.570;6.060;2023-02-13T00:08:11;3.50;99.90
12700;DHT22;6414;49.570;6.060;2023-02-13T00:10:56;3.50;99.90
12700;DHT22;6414;49.570;6.060;2023-02-13T00:13:42;3.50;99.90
12700;DHT22;6414;49.570;6.060;2023-02-13T00:16:27;3.50;99.90
12700;DHT22;6414;49.570;6.060;2023-02-13T00:19:12;3.50;99.90
12700;DHT22;6414;49.570;6.060;2023-02-13T00:21:58;3.50;99.90
12700;DHT22;6414;49.570;6.060;2023-02-13T00:24:44;3.50;99.90
12700;DHT22;6414;49.570;6.060;2023-02-13T00:27:30;3.40;99.90
12700;DHT22;6414;49.570;6.060;2023-02-13T00:30:15;3.30;99.90
12700;DHT22;6414;49.570;6.060;2023-02-13T00:33:01;3.30;99.90
12700;DHT22;6414;49.570;6.060;2023-02-13T00:35:47;3.40;99.90
12700;DHT22;6414;49.570;6.060;2023-02-13T00:38:32;3.50;99.90
12700;DHT22;6414;49.570;6.060;2023-02-13T00:41:17;3.60;99.90
12700;DHT22;6414;49.570;6.060;2023-02-13T00:44:02;3.60;99.90
12700;DHT22;6414;49.570;6.060;2023-02-13T00:46:48;3.60;99.90
12700;DHT22;6414;49.570;6.060;2023-02-13T00:49:34;3.70;99.90
12700;DHT22;6414;49.570;6.060;2023-02-13T00:52:19;3.60;99.90
12700;DHT22;6414;49.570;6.060;2023-02-13T00:55:05;3.70;99.90
12700;DHT22;6414;49.570;6.060;2023-02-13T00:57:51;3.70;99.90
12700;DHT22;6414;49.570;6.060;2023-02-13T01:00:37;3.40;99.90
12700;DHT22;6414;49.570;6.060;2023-02-13T01:03:23;3.40;99.90
12700;DHT22;6414;49.570;6.060;2023-02-13T01:06:08;3.30;99.90
12700;DHT22;6414;49.570;6.060;2023-02-13T01:08:53;3.30;99.90
12700;DHT22;6414;49.570;6.060;2023-02-13T01:11:39;3.30;99.90
12700;DHT22;6414;49.570;6.060;2023-02-13T01:14:24;3.30;99.90
12700;DHT22;6414;49.570;6.060;2023-02-13T01:17:10;3.20;99.90
12700;DHT22;6414;49.570;6.060;2023-02-13T01:19:56;3.20;99.90
12700;DHT22;6414;49.570;6.060;2023-02-13T01:22:42;3.20;99.90
12700;DHT22;6414;49.570;6.060;2023-02-13T01:25:28;3.20;99.90
12700;DHT22;6414;49.570;6.060;2023-02-13T01:28:14;3.30;99.90
12700;DHT22;6414;49.570;6.060;2023-02-13T01:31:01;3.40;99.90
12700;DHT22;6414;49.570;6.060;2023-02-13T01:33:46;3.40;99.90
12700;DHT22;6414;49.570;6.060;2023-02-13T01:36:32;3.50;99.90
12700;DHT22;6414;49.570;6.060;2023-02-13T01:39:18;3.50;99.90
12700;DHT22;6414;49.570;6.060;2023-02-13T01:42:03;3.40;99.90
12700;DHT22;6414;49.570;6.060;2023-02-13T01:44:56;3.50;99.90
12700;DHT22;6414;49.570;6.060;2023-02-13T01:47:42;3.40;99.90
12700;DHT22;6414;49.570;6.060;2023-02-13T01:50:35;3.40;99.90
12700;DHT22;6414;49.570;6.060;2023-02-13T01:53:44;3.30;99.90
12700;DHT22;6414;49.570;6.060;2023-02-13T01:56:33;3.20;99.90
12700;DHT22;6414;49.570;6.060;2023-02-13T01:59:21;3.20;99.90
12700;DHT22;6414;49.570;6.060;2023-02-13T02:02:02;3.20;99.90
12700;DHT22;6414;49.570;6.060;2023-02-13T02:04:49;3.20;99.90
12700;DHT22;6414;49.570;6.060;2023-02-13T02:07:36;3.20;99.90
12700;DHT22;6414;49.570;6.060;2023-02-13T02:10:21;3.20;99.90
12700;DHT22;6414;49.570;6.060;2023-02-13T02:13:11;3.20;99.90
12700;DHT22;6414;49.570;6.060;2023-02-13T02:15:52;3.20;99.90
12700;DHT22;6414;49.570;6.060;2023-02-13T02:18:37;3.20;99.90
12700;DHT22;6414;49.570;6.060;2023-02-13T02:21:43;3.20;99.90
12700;DHT22;6414;49.570;6.060;2023-02-13T02:24:46;3.10;99.90
12700;DHT22;6414;49.570;6.060;2023-02-13T02:28:00;3.10;99.90
12700;DHT22;6414;49.570;6.060;2023-02-13T02:34:19;3.00;99.90
12700;DHT22;6414;49.570;6.060;2023-02-13T02:40:11;2.90;99.90
12700;DHT22;6414;49.570;6.060;2023-02-13T02:49:06;3.20;99.90
12700;DHT22;6414;49.570;6.060;2023-02-13T02:52:02;3.20;99.90
12700;DHT22;6414;49.570;6.060;2023-02-13T02:54:49;3.20;99.90
12700;DHT22;6414;49.570;6.060;2023-02-13T02:58:04;3.20;99.90
12700;DHT22;6414;49.570;6.060;2023-02-13T03:00:56;3.30;99.90
12700;DHT22;6414;49.570;6.060;2023-02-13T03:03:59;3.20;99.90
12700;DHT22;6414;49.570;6.060;2023-02-13T03:07:05;3.20;99.90
12700;DHT22;6414;49.570;6.060;2023-02-13T03:09:56;3.20;99.90
12700;DHT22;6414;49.570;6.060;2023-02-13T03:13:09;3.10;99.90
12700;DHT22;6414;49.570;6.060;2023-02-13T03:16:05;3.00;99.90
12700;DHT22;6414;49.570;6.060;2023-02-13T03:19:12;2.90;99.90
12700;DHT22;6414;49.570;6.060;2023-02-13T03:22:40;2.80;99.90
12700;DHT22;6414;49.570;6.060;2023-02-13T03:25:36;2.90;99.90
12700;DHT22;6414;49.570;6.060;2023-02-13T03:28:30;2.90;99.90
12700;DHT22;6414;49.570;6.060;2023-02-13T03:31:53;3.00;99.90
12700;DHT22;6414;49.570;6.060;2023-02-13T03:34:40;3.00;99.90
12700;DHT22;6414;49.570;6.060;2023-02-13T03:37:44;2.90;99.90
12700;DHT22;6414;49.570;6.060;2023-02-13T03:40:45;2.50;99.90
12700;DHT22;6414;49.570;6.060;2023-02-13T03:43:28;2.40;99.90
12700;DHT22;6414;49.570;6.060;2023-02-13T03:46:14;2.20;99.90
12700;DHT22;6414;49.570;6.060;2023-02-13T03:49:00;2.20;99.90
12700;DHT22;6414;49.570;6.060;2023-02-13T03:52:16;1.80;99.90
12700;DHT22;6414;49.570;6.060;2023-02-13T03:55:14;1.80;99.90
12700;DHT22;6414;49.570;6.060;2023-02-13T03:58:14;1.80;99.90
12700;DHT22;6414;49.570;6.060;2023-02-13T04:01:18;1.70;99.90
12700;DHT22;6414;49.570;6.060;2023-02-13T04:04:26;1.60;99.90
12700;DHT22;6414;49.570;6.060;2023-02-13T04:07:11;1.10;99.90
12700;DHT22;6414;49.570;6.060;2023-02-13T04:09:57;1.30;99.90
12700;DHT22;6414;49.570;6.060;2023-02-13T04:15:47;2.30;99.90
12700;DHT22;6414;49.570;6.060;2023-02-13T04:18:30;2.40;99.90
12700;DHT22;6414;49.570;6.060;2023-02-13T04:21:15;2.70;99.90
12700;DHT22;6414;49.570;6.060;2023-02-13T04:24:01;2.80;99.90
12700;DHT22;6414;49.570;6.060;2023-02-13T04:26:46;2.00;99.90
12700;DHT22;6414;49.570;6.060;2023-02-13T04:29:32;1.90;99.90
12700;DHT22;6414;49.570;6.060;2023-02-13T04:32:17;2.00;99.90
12700;DHT22;6414;49.570;6.060;2023-02-13T04:35:02;1.50;99.90
12700;DHT22;6414;49.570;6.060;2023-02-13T04:37:48;1.20;99.90
12700;DHT22;6414;49.570;6.060;2023-02-13T04:40:33;1.90;99.90
12700;DHT22;6414;49.570;6.060;2023-02-13T04:43:19;1.70;99.90
12700;DHT22;6414;49.570;6.060;2023-02-13T04:46:05;1.30;99.90
12700;DHT22;6414;49.570;6.060;2023-02-13T04:48:50;1.40;99.90
12700;DHT22;6414;49.570;6.060;2023-02-13T04:51:35;1.20;99.90
12700;DHT22;6414;49.570;6.060;2023-02-13T04:54:21;1.20;99.90
12700;DHT22;6414;49.570;6.060;2023-02-13T04:57:06;1.10;99.90
12700;DHT22;6414;49.570;6.060;2023-02-13T04:59:52;0.90;99.90
12700;DHT22;6414;49.570;6.060;2023-02-13T05:02:38;0.90;99.90
12700;DHT22;6414;49.570;6.060;2023-02-13T05:05:23;0.70;99.90
12700;DHT22;6414;49.570;6.060;2023-02-13T05:08:09;0.30;99.90
12700;DHT22;6414;49.570;6.060;2023-02-13T05:10:54;0.40;99.90
12700;DHT22;6414;49.570;6.060;2023-02-13T05:13:40;0.00;99.90
12700;DHT22;6414;49.570;6.060;2023-02-13T05:16:25;-0.30;99.90
12700;DHT22;6414;49.570;6.060;2023-02-13T05:19:10;-0.50;99.90
12700;DHT22;6414;49.570;6.060;2023-02-13T05:21:56;-0.80;99.90
12700;DHT22;6414;49.570;6.060;2023-02-13T05:25:00;-0.80;99.90
12700;DHT22;6414;49.570;6.060;2023-02-13T05:27:46;-0.60;99.90
12700;DHT22;6414;49.570;6.060;2023-02-13T05:30:32;-0.50;99.90
12700;DHT22;6414;49.570;6.060;2023-02-13T05:33:18;-0.50;99.90
12700;DHT22;6414;49.570;6.060;2023-02-13T05:36:04;-0.40;99.90
12700;DHT22;6414;49.570;6.060;2023-02-13T05:38:49;-0.30;99.90
12700;DHT22;6414;49.570;6.060;2023-02-13T05:41:35;-0.30;99.90
12700;DHT22;6414;49.570;6.060;2023-02-13T05:44:20;-0.10;99.90
12700;DHT22;6414;49.570;6.060;2023-02-13T05:47:06;-0.10;99.90
12700;DHT22;6414;49.570;6.060;2023-02-13T05:49:52;-0.30;99.90
12700;DHT22;6414;49.570;6.060;2023-02-13T05:52:38;-0.40;99.90
12700;DHT22;6414;49.570;6.060;2023-02-13T05:55:23;-0.30;99.90
12700;DHT22;6414;49.570;6.060;2023-02-13T05:58:09;-0.40;99.90
12700;DHT22;6414;49.570;6.060;2023-02-13T06:00:55;-0.40;99.90
12700;DHT22;6414;49.570;6.060;2023-02-13T06:03:40;-0.50;99.90
12700;DHT22;6414;49.570;6.060;2023-02-13T06:06:26;-0.60;99.90
12700;DHT22;6414;49.570;6.060;2023-02-13T06:09:11;-0.40;99.90
12700;DHT22;6414;49.570;6.060;2023-02-13T06:11:56;-0.40;99.90
12700;DHT22;6414;49.570;6.060;2023-02-13T06:14:42;-0.30;99.90
12700;DHT22;6414;49.570;6.060;2023-02-13T06:17:28;-0.30;99.90
12700;DHT22;6414;49.570;6.060;2023-02-13T06:20:14;-0.30;99.90
12700;DHT22;6414;49.570;6.060;2023-02-13T06:22:59;-0.10;99.90
12700;DHT22;6414;49.570;6.060;2023-02-13T06:25:45;-0.20;99.90
12700;DHT22;6414;49.570;6.060;2023-02-13T06:28:30;-0.10;99.90
12700;DHT22;6414;49.570;6.060;2023-02-13T06:31:15;0.00;99.90
12700;DHT22;6414;49.570;6.060;2023-02-13T06:34:02;-0.20;99.90
12700;DHT22;6414;49.570;6.060;2023-02-13T06:36:48;-0.30;99.90
12700;DHT22;6414;49.570;6.060;2023-02-13T06:39:34;-0.30;99.90
12700;DHT22;6414;49.570;6.060;2023-02-13T06:42:20;-0.20;99.90
12700;DHT22;6414;49.570;6.060;2023-02-13T06:45:05;-0.20;99.90
12700;DHT22;6414;49.570;6.060;2023-02-13T06:47:52;-0.40;99.90
12700;DHT22;6414;49.570;6.060;2023-02-13T06:50:38;-0.40;99.90
12700;DHT22;6414;49.570;6.060;2023-02-13T06:53:24;-0.80;99.90
12700;DHT22;6414;49.570;6.060;2023-02-13T06:56:10;-1.30;99.90
12700;DHT22;6414;49.570;6.060;2023-02-13T06:58:56;-1.30;99.90
12700;DHT22;6414;49.570;6.060;2023-02-13T07:01:41;-1.30;99.90
12700;DHT22;6414;49.570;6.060;2023-02-13T07:04:26;-1.30;99.90
12700;DHT22;6414;49.570;6.060;2023-02-13T07:07:13;-1.10;99.90
12700;DHT22;6414;49.570;6.060;2023-02-13T07:09:58;-1.10;99.90
12700;DHT22;6414;49.570;6.060;2023-02-13T07:12:44;-0.80;99.90
12700;DHT22;6414;49.570;6.060;2023-02-13T07:15:30;-0.80;99.90
12700;DHT22;6414;49.570;6.060;2023-02-13T07:18:15;-1.00;99.90
12700;DHT22;6414;49.570;6.060;2023-02-13T07:21:01;-1.20;99.90
12700;DHT22;6414;49.570;6.060;2023-02-13T07:23:46;-1.10;99.90
12700;DHT22;6414;49.570;6.060;2023-02-13T07:26:33;-1.00;99.90
12700;DHT22;6414;49.570;6.060;2023-02-13T07:29:18;-1.00;99.90
12700;DHT22;6414;49.570;6.060;2023-02-13T07:32:04;-1.00;99.90
12700;DHT22;6414;49.570;6.060;2023-02-13T07:34:49;-0.90;99.90
12700;DHT22;6414;49.570;6.060;2023-02-13T07:37:35;-0.80;99.90
12700;DHT22;6414;49.570;6.060;2023-02-13T07:40:21;-0.80;99.90
12700;DHT22;6414;49.570;6.060;2023-02-13T07:43:07;-0.50;99.90
12700;DHT22;6414;49.570;6.060;2023-02-13T07:45:53;-0.50;99.90
12700;DHT22;6414;49.570;6.060;2023-02-13T07:48:42;-0.40;99.90
12700;DHT22;6414;49.570;6.060;2023-02-13T07:51:27;-0.40;99.90
12700;DHT22;6414;49.570;6.060;2023-02-13T07:54:13;-0.30;99.90
12700;DHT22;6414;49.570;6.060;2023-02-13T07:57:00;0.00;99.90
12700;DHT22;6414;49.570;6.060;2023-02-13T07:59:45;0.10;99.90
12700;DHT22;6414;49.570;6.060;2023-02-13T08:02:31;0.30;99.90
12700;DHT22;6414;49.570;6.060;2023-02-13T08:05:17;0.30;99.90
12700;DHT22;6414;49.570;6.060;2023-02-13T08:08:02;0.60;99.90
12700;DHT22;6414;49.570;6.060;2023-02-13T08:10:48;1.00;99.90
12700;DHT22;6414;49.570;6.060;2023-02-13T08:13:52;1.20;99.90
12700;DHT22;6414;49.570;6.060;2023-02-13T08:16:37;1.90;99.90
12700;DHT22;6414;49.570;6.060;2023-02-13T08:19:23;1.90;99.90
12700;DHT22;6414;49.570;6.060;2023-02-13T08:22:08;2.00;99.90
12700;DHT22;6414;49.570;6.060;2023-02-13T08:24:55;2.50;99.90
12700;DHT22;6414;49.570;6.060;2023-02-13T08:27:40;2.50;99.90
12700;DHT22;6414;49.570;6.060;2023-02-13T08:30:26;2.70;99.90
12700;DHT22;6414;49.570;6.060;2023-02-13T08:33:11;2.90;99.90
12700;DHT22;6414;49.570;6.060;2023-02-13T08:35:57;2.50;99.90
12700;DHT22;6414;49.570;6.060;2023-02-13T08:38:42;2.00;99.90
12700;DHT22;6414;49.570;6.060;2023-02-13T08:41:28;1.20;99.90
12700;DHT22;6414;49.570;6.060;2023-02-13T08:44:14;1.00;99.90
12700;DHT22;6414;49.570;6.060;2023-02-13T08:47:00;1.10;99.90
12700;DHT22;6414;49.570;6.060;2023-02-13T08:49:48;1.30;99.90
12700;DHT22;6414;49.570;6.060;2023-02-13T08:52:34;2.00;99.90
12700;DHT22;6414;49.570;6.060;2023-02-13T08:55:19;2.30;99.90
12700;DHT22;6414;49.570;6.060;2023-02-13T08:58:05;2.80;99.90
12700;DHT22;6414;49.570;6.060;2023-02-13T09:00:50;3.00;99.90
12700;DHT22;6414;49.570;6.060;2023-02-13T09:03:36;3.60;99.90
12700;DHT22;6414;49.570;6.060;2023-02-13T09:06:21;3.70;99.90
12700;DHT22;6414;49.570;6.060;2023-02-13T09:09:08;3.40;99.90
12700;DHT22;6414;49.570;6.060;2023-02-13T09:11:53;3.40;99.90
12700;DHT22;6414;49.570;6.060;2023-02-13T09:14:39;2.50;99.90
12700;DHT22;6414;49.570;6.060;2023-02-13T09:17:25;2.40;99.90
12700;DHT22;6414;49.570;6.060;2023-02-13T09:20:11;2.10;99.90
12700;DHT22;6414;49.570;6.060;2023-02-13T09:22:56;2.10;99.90
12700;DHT22;6414;49.570;6.060;2023-02-13T09:25:41;2.50;99.90
12700;DHT22;6414;49.570;6.060;2023-02-13T09:28:28;3.10;99.90
12700;DHT22;6414;49.570;6.060;2023-02-13T09:31:16;3.10;99.90
12700;DHT22;6414;49.570;6.060;2023-02-13T09:34:00;3.30;99.90
12700;DHT22;6414;49.570;6.060;2023-02-13T09:36:49;3.80;99.90
12700;DHT22;6414;49.570;6.060;2023-02-13T09:39:32;7.70;99.90
12700;DHT22;6414;49.570;6.060;2023-02-13T09:42:25;8.20;99.90
12700;DHT22;6414;49.570;6.060;2023-02-13T09:45:06;8.20;99.90
12700;DHT22;6414;49.570;6.060;2023-02-13T09:47:51;8.30;99.90
12700;DHT22;6414;49.570;6.060;2023-02-13T09:50:36;8.80;99.90
12700;DHT22;6414;49.570;6.060;2023-02-13T09:53:22;9.40;99.90
12700;DHT22;6414;49.570;6.060;2023-02-13T09:56:15;9.90;99.90
12700;DHT22;6414;49.570;6.060;2023-02-13T09:59:13;10.50;1.00
12700;DHT22;6414;49.570;6.060;2023-02-13T10:01:53;10.40;99.90
12700;DHT22;6414;49.570;6.060;2023-02-13T10:04:57;10.60;1.00
12700;DHT22;6414;49.570;6.060;2023-02-13T10:10:47;9.50;1.00
12700;DHT22;6414;49.570;6.060;2023-02-13T10:16:37;8.20;56.70
12700;DHT22;6414;49.570;6.060;2023-02-13T10:28:03;6.90;99.90
12700;DHT22;6414;49.570;6.060;2023-02-13T10:30:50;6.90;99.90
12700;DHT22;6414;49.570;6.060;2023-02-13T10:33:48;7.20;99.90
12700;DHT22;6414;49.570;6.060;2023-02-13T10:36:35;7.30;99.90
12700;DHT22;6414;49.570;6.060;2023-02-13T10:39:24;7.30;99.90
12700;DHT22;6414;49.570;6.060;2023-02-13T10:42:22;7.20;99.90
12700;DHT22;6414;49.570;6.060;2023-02-13T10:45:31;7.50;99.90
12700;DHT22;6414;49.570;6.060;2023-02-13T10:51:48;7.70;99.90
12700;DHT22;6414;49.570;6.060;2023-02-13T10:54:24;7.30;99.90
12700;DHT22;6414;49.570;6.060;2023-02-13T11:02:55;7.50;99.90
12700;DHT22;6414;49.570;6.060;2023-02-13T11:05:40;7.50;99.90
12700;DHT22;6414;49.570;6.060;2023-02-13T11:08:33;7.40;99.90
12700;DHT22;6414;49.570;6.060;2023-02-13T11:11:31;7.50;99.90
12700;DHT22;6414;49.570;6.060;2023-02-13T11:14:20;7.90;99.90
12700;DHT22;6414;49.570;6.060;2023-02-13T11:17:05;7.60;99.90
12700;DHT22;6414;49.570;6.060;2023-02-13T11:19:51;7.60;99.90
12700;DHT22;6414;49.570;6.060;2023-02-13T11:22:37;8.10;99.90
12700;DHT22;6414;49.570;6.060;2023-02-13T11:25:21;7.70;99.90
12700;DHT22;6414;49.570;6.060;2023-02-13T11:28:16;7.90;99.90
12700;DHT22;6414;49.570;6.060;2023-02-13T11:31:21;8.00;99.90
12700;DHT22;6414;49.570;6.060;2023-02-13T11:34:26;7.90;99.90
12700;DHT22;6414;49.570;6.060;2023-02-13T11:37:20;8.00;99.90
12700;DHT22;6414;49.570;6.060;2023-02-13T11:40:15;8.00;99.90
12700;DHT22;6414;49.570;6.060;2023-02-13T11:42:48;8.30;99.90
12700;DHT22;6414;49.570;6.060;2023-02-13T11:45:33;8.30;99.90
12700;DHT22;6414;49.570;6.060;2023-02-13T11:48:21;8.50;99.90
12700;DHT22;6414;49.570;6.060;2023-02-13T11:51:07;8.40;86.80
12700;DHT22;6414;49.570;6.060;2023-02-13T11:53:53;8.40;72.10
12700;DHT22;6414;49.570;6.060;2023-02-13T11:56:49;8.50;99.90
12700;DHT22;6414;49.570;6.060;2023-02-13T11:59:41;8.50;99.90
12700;DHT22;6414;49.570;6.060;2023-02-13T12:02:29;8.50;1.00
12700;DHT22;6414;49.570;6.060;2023-02-13T12:05:16;8.50;1.00
12700;DHT22;6414;49.570;6.060;2023-02-13T12:08:00;8.70;1.00
12700;DHT22;6414;49.570;6.060;2023-02-13T12:10:45;8.50;1.00
12700;DHT22;6414;49.570;6.060;2023-02-13T12:13:36;8.50;1.00
12700;DHT22;6414;49.570;6.060;2023-02-13T12:16:34;8.90;99.90
12700;DHT22;6414;49.570;6.060;2023-02-13T12:19:27;8.70;14.20
12700;DHT22;6414;49.570;6.060;2023-02-13T12:22:35;8.80;1.00
12700;DHT22;6414;49.570;6.060;2023-02-13T12:28:15;8.90;1.00
12700;DHT22;6414;49.570;6.060;2023-02-13T12:34:16;9.10;1.00
12700;DHT22;6414;49.570;6.060;2023-02-13T12:37:13;9.30;1.00
12700;DHT22;6414;49.570;6.060;2023-02-13T12:43:25;8.90;1.00
12700;DHT22;6414;49.570;6.060;2023-02-13T12:52:35;9.20;1.00
12700;DHT22;6414;49.570;6.060;2023-02-13T12:55:47;9.20;1.00
12700;DHT22;6414;49.570;6.060;2023-02-13T12:58:39;9.20;1.00
12700;DHT22;6414;49.570;6.060;2023-02-13T13:07:54;9.50;1.00
12700;DHT22;6414;49.570;6.060;2023-02-13T13:23:09;9.30;1.00
12700;DHT22;6414;49.570;6.060;2023-02-13T13:28:40;9.80;1.00
12700;DHT22;6414;49.570;6.060;2023-02-13T13:31:25;9.60;1.00
12700;DHT22;6414;49.570;6.060;2023-02-13T13:34:12;9.50;1.00
12700;DHT22;6414;49.570;6.060;2023-02-13T13:37:07;9.50;1.00
12700;DHT22;6414;49.570;6.060;2023-02-13T13:46:10;10.10;1.00
12700;DHT22;6414;49.570;6.060;2023-02-13T13:49:09;9.90;1.00
12700;DHT22;6414;49.570;6.060;2023-02-13T13:51:52;9.80;1.00
12700;DHT22;6414;49.570;6.060;2023-02-13T13:54:37;9.80;1.00
12700;DHT22;6414;49.570;6.060;2023-02-13T14:00:22;9.90;1.00
12700;DHT22;6414;49.570;6.060;2023-02-13T14:03:19;10.00;1.00
12700;DHT22;6414;49.570;6.060;2023-02-13T14:06:01;10.10;99.90
12700;DHT22;6414;49.570;6.060;2023-02-13T14:11:37;10.20;1.00
12700;DHT22;6414;49.570;6.060;2023-02-13T14:17:13;10.20;99.90
12700;DHT22;6414;49.570;6.060;2023-02-13T14:19:58;10.30;50.50
12700;DHT22;6414;49.570;6.060;2023-02-13T14:22:44;10.30;1.00
12700;DHT22;6414;49.570;6.060;2023-02-13T14:25:30;10.20;1.00
12700;DHT22;6414;49.570;6.060;2023-02-13T14:28:25;10.40;1.00
12700;DHT22;6414;49.570;6.060;2023-02-13T14:37:18;10.20;1.00
12700;DHT22;6414;49.570;6.060;2023-02-13T14:43:06;10.20;99.90
12700;DHT22;6414;49.570;6.060;2023-02-13T14:48:47;10.00;99.90
12700;DHT22;6414;49.570;6.060;2023-02-13T14:51:47;10.00;99.90
12700;DHT22;6414;49.570;6.060;2023-02-13T14:54:37;10.20;78.40
12700;DHT22;6414;49.570;6.060;2023-02-13T14:57:26;10.20;1.00
12700;DHT22;6414;49.570;6.060;2023-02-13T15:00:27;10.00;99.90
12700;DHT22;6414;49.570;6.060;2023-02-13T15:06:06;10.10;99.90
12700;DHT22;6414;49.570;6.060;2023-02-13T15:08:50;9.90;98.40
12700;DHT22;6414;49.570;6.060;2023-02-13T15:11:40;9.90;89.30
12700;DHT22;6414;49.570;6.060;2023-02-13T15:17:19;9.90;1.00
12700;DHT22;6414;49.570;6.060;2023-02-13T15:20:22;9.90;1.00
12700;DHT22;6414;49.570;6.060;2023-02-13T15:23:07;9.90;99.90
12700;DHT22;6414;49.570;6.060;2023-02-13T15:26:02;9.90;99.90
12700;DHT22;6414;49.570;6.060;2023-02-13T15:29:04;9.80;1.00
12700;DHT22;6414;49.570;6.060;2023-02-13T15:31:45;9.80;1.00
12700;DHT22;6414;49.570;6.060;2023-02-13T15:34:31;9.80;1.00
12700;DHT22;6414;49.570;6.060;2023-02-13T15:37:24;9.60;99.90
12700;DHT22;6414;49.570;6.060;2023-02-13T15:40:18;9.60;99.90
12700;DHT22;6414;49.570;6.060;2023-02-13T15:43:01;9.60;99.90
12700;DHT22;6414;49.570;6.060;2023-02-13T15:45:46;9.70;99.90
12700;DHT22;6414;49.570;6.060;2023-02-13T15:48:31;9.50;1.00
12700;DHT22;6414;49.570;6.060;2023-02-13T15:51:20;9.40;1.00
12700;DHT22;6414;49.570;6.060;2023-02-13T15:54:18;9.40;1.00
12700;DHT22;6414;49.570;6.060;2023-02-13T15:56:51;9.40;1.00
12700;DHT22;6414;49.570;6.060;2023-02-13T15:59:36;9.40;99.90
12700;DHT22;6414;49.570;6.060;2023-02-13T16:02:36;9.30;1.00
12700;DHT22;6414;49.570;6.060;2023-02-13T16:05:14;9.30;1.00
12700;DHT22;6414;49.570;6.060;2023-02-13T16:08:00;9.20;1.00
12700;DHT22;6414;49.570;6.060;2023-02-13T16:10:45;9.20;1.00
12700;DHT22;6414;49.570;6.060;2023-02-13T16:13:32;9.10;1.00
12700;DHT22;6414;49.570;6.060;2023-02-13T16:16:18;9.10;1.00
12700;DHT22;6414;49.570;6.060;2023-02-13T16:19:04;9.00;1.00
12700;DHT22;6414;49.570;6.060;2023-02-13T16:21:50;9.00;1.00
12700;DHT22;6414;49.570;6.060;2023-02-13T16:24:36;8.80;1.00
12700;DHT22;6414;49.570;6.060;2023-02-13T16:27:23;8.70;1.00
12700;DHT22;6414;49.570;6.060;2023-02-13T16:30:15;8.80;1.00
12700;DHT22;6414;49.570;6.060;2023-02-13T16:33:39;8.70;1.00
12700;DHT22;6414;49.570;6.060;2023-02-13T16:35:42;8.60;1.00
12700;DHT22;6414;49.570;6.060;2023-02-13T16:38:34;8.60;1.00
12700;DHT22;6414;49.570;6.060;2023-02-13T16:44:20;8.50;1.00
12700;DHT22;6414;49.570;6.060;2023-02-13T16:46:59;8.40;1.00
12700;DHT22;6414;49.570;6.060;2023-02-13T16:49:44;8.20;1.00
12700;DHT22;6414;49.570;6.060;2023-02-13T16:52:29;8.20;1.00
12700;DHT22;6414;49.570;6.060;2023-02-13T16:55:15;8.10;35.50
12700;DHT22;6414;49.570;6.060;2023-02-13T16:58:02;7.90;99.80
12700;DHT22;6414;49.570;6.060;2023-02-13T17:00:48;7.70;99.90
12700;DHT22;6414;49.570;6.060;2023-02-13T17:03:31;7.60;99.90
12700;DHT22;6414;49.570;6.060;2023-02-13T17:06:17;7.50;99.90
12700;DHT22;6414;49.570;6.060;2023-02-13T17:09:02;7.40;99.90
12700;DHT22;6414;49.570;6.060;2023-02-13T17:11:49;7.20;99.90
12700;DHT22;6414;49.570;6.060;2023-02-13T17:14:34;7.20;99.90
12700;DHT22;6414;49.570;6.060;2023-02-13T17:17:20;7.20;99.90
12700;DHT22;6414;49.570;6.060;2023-02-13T17:20:05;7.10;99.90
12700;DHT22;6414;49.570;6.060;2023-02-13T17:22:51;7.10;99.90
12700;DHT22;6414;49.570;6.060;2023-02-13T17:25:36;7.00;99.90
12700;DHT22;6414;49.570;6.060;2023-02-13T17:28:24;7.00;99.90
12700;DHT22;6414;49.570;6.060;2023-02-13T17:31:09;6.90;99.90
12700;DHT22;6414;49.570;6.060;2023-02-13T17:33:55;6.90;99.90
12700;DHT22;6414;49.570;6.060;2023-02-13T17:36:42;6.90;99.90
12700;DHT22;6414;49.570;6.060;2023-02-13T17:39:28;6.80;99.90
12700;DHT22;6414;49.570;6.060;2023-02-13T17:42:18;6.80;99.90
12700;DHT22;6414;49.570;6.060;2023-02-13T17:45:02;6.80;99.90
12700;DHT22;6414;49.570;6.060;2023-02-13T17:47:48;6.70;99.90
12700;DHT22;6414;49.570;6.060;2023-02-13T17:50:34;6.70;99.90
12700;DHT22;6414;49.570;6.060;2023-02-13T17:53:26;6.70;99.90
12700;DHT22;6414;49.570;6.060;2023-02-13T17:56:10;6.80;99.90
12700;DHT22;6414;49.570;6.060;2023-02-13T17:58:56;6.70;99.90
12700;DHT22;6414;49.570;6.060;2023-02-13T18:01:41;6.60;99.90
12700;DHT22;6414;49.570;6.060;2023-02-13T18:04:27;6.50;99.90
12700;DHT22;6414;49.570;6.060;2023-02-13T18:07:15;6.20;99.90
12700;DHT22;6414;49.570;6.060;2023-02-13T18:10:00;6.00;99.90
12700;DHT22;6414;49.570;6.060;2023-02-13T18:12:46;6.00;99.90
12700;DHT22;6414;49.570;6.060;2023-02-13T18:15:38;6.00;99.90
12700;DHT22;6414;49.570;6.060;2023-02-13T18:18:19;5.90;99.90
12700;DHT22;6414;49.570;6.060;2023-02-13T18:21:04;5.80;99.90
12700;DHT22;6414;49.570;6.060;2023-02-13T18:23:53;5.80;99.90
12700;DHT22;6414;49.570;6.060;2023-02-13T18:26:39;5.80;99.90
12700;DHT22;6414;49.570;6.060;2023-02-13T18:29:25;5.70;99.90
12700;DHT22;6414;49.570;6.060;2023-02-13T18:32:11;5.80;99.90
12700;DHT22;6414;49.570;6.060;2023-02-13T18:34:56;5.90;99.90
12700;DHT22;6414;49.570;6.060;2023-02-13T18:37:42;6.10;99.90
12700;DHT22;6414;49.570;6.060;2023-02-13T18:40:28;6.00;99.90
12700;DHT22;6414;49.570;6.060;2023-02-13T18:43:13;6.10;99.90
12700;DHT22;6414;49.570;6.060;2023-02-13T18:45:58;6.00;99.90
12700;DHT22;6414;49.570;6.060;2023-02-13T18:48:44;5.90;99.90
12700;DHT22;6414;49.570;6.060;2023-02-13T18:51:29;5.70;99.90
12700;DHT22;6414;49.570;6.060;2023-02-13T18:54:16;5.60;99.90
12700;DHT22;6414;49.570;6.060;2023-02-13T18:57:01;5.60;99.90
12700;DHT22;6414;49.570;6.060;2023-02-13T18:59:46;5.60;99.90
12700;DHT22;6414;49.570;6.060;2023-02-13T19:02:32;5.50;99.90
12700;DHT22;6414;49.570;6.060;2023-02-13T19:05:17;5.50;99.90
12700;DHT22;6414;49.570;6.060;2023-02-13T19:08:02;5.50;99.90
12700;DHT22;6414;49.570;6.060;2023-02-13T19:10:48;5.60;99.90
12700;DHT22;6414;49.570;6.060;2023-02-13T19:13:34;5.60;99.90
12700;DHT22;6414;49.570;6.060;2023-02-13T19:16:19;5.50;99.90
12700;DHT22;6414;49.570;6.060;2023-02-13T19:19:05;5.30;99.90
12700;DHT22;6414;49.570;6.060;2023-02-13T19:21:50;5.30;99.90
12700;DHT22;6414;49.570;6.060;2023-02-13T19:24:36;5.20;99.90
12700;DHT22;6414;49.570;6.060;2023-02-13T19:27:21;5.10;99.90
12700;DHT22;6414;49.570;6.060;2023-02-13T19:30:07;5.00;99.90
12700;DHT22;6414;49.570;6.060;2023-02-13T19:32:52;5.00;99.90
12700;DHT22;6414;49.570;6.060;2023-02-13T19:35:37;4.90;99.90
12700;DHT22;6414;49.570;6.060;2023-02-13T19:38:23;5.00;99.90
12700;DHT22;6414;49.570;6.060;2023-02-13T19:41:10;5.00;99.90
12700;DHT22;6414;49.570;6.060;2023-02-13T19:43:56;5.00;99.90
12700;DHT22;6414;49.570;6.060;2023-02-13T19:46:41;5.00;99.90
12700;DHT22;6414;49.570;6.060;2023-02-13T19:49:26;5.00;99.90
12700;DHT22;6414;49.570;6.060;2023-02-13T19:52:12;5.10;99.90
12700;DHT22;6414;49.570;6.060;2023-02-13T19:54:58;5.10;99.90
12700;DHT22;6414;49.570;6.060;2023-02-13T19:57:44;5.20;99.90
12700;DHT22;6414;49.570;6.060;2023-02-13T20:00:30;5.10;99.90
12700;DHT22;6414;49.570;6.060;2023-02-13T20:03:15;4.80;99.90
12700;DHT22;6414;49.570;6.060;2023-02-13T20:06:12;4.80;99.90
12700;DHT22;6414;49.570;6.060;2023-02-13T20:08:58;4.80;99.90
12700;DHT22;6414;49.570;6.060;2023-02-13T20:11:42;4.80;99.90